Time;durP1;ratioP1;P1;durP2;ratioP2;P2;SDS_P1;SDS_P2;PMS_P1;PMS_P2;Temp;Humidity;BMP_temperature;BMP_pressure;BME280_temperature;BME280_humidity;BME280_pressure;Samples;Min_cycle;Max_cycle;Signal;HPM_P1;HPM_P2
2022/12/29 00:01:27;;;;;;;3.70;2.62;;;9.30;52.40;;;;;;20657;6730;307241;-75
2022/12/29 00:03:59;;;;;;;3.28;3.00;;;9.50;51.70;;;;;;20674;6729;285626;-75
2022/12/29 00:06:35;;;;;;;2.60;2.27;;;9.90;51.30;;;;;;20884;6730;116721;-75
2022/12/29 00:09:12;;;;;;;2.50;2.40;;;9.80;51.60;;;;;;20660;6801;118497;-74
2022/12/29 00:11:50;;;;;;;2.97;2.60;;;9.60;52.10;;;;;;20865;6730;117117;-75
2022/12/29 00:17:18;;;;;;;2.57;2.37;;;9.30;53.10;;;;;;20832;6730;117298;-75
2022/12/29 00:44:04;;;;;;;4.73;2.40;;;10.40;48.80;;;;;;20812;6730;118412;-76
2022/12/29 00:45:53;;;;;;;2.07;1.97;;;9.60;51.60;;;;;;20886;6730;116855;-75
2022/12/29 00:51:25;;;;;;;2.37;2.20;;;9.60;51.60;;;;;;20865;6730;118854;-74
2022/12/29 00:54:03;;;;;;;3.50;2.67;;;9.60;51.80;;;;;;20669;6730;309707;-75
2022/12/29 00:56:36;;;;;;;2.97;2.50;;;9.70;51.10;;;;;;20885;6730;119132;-75
2022/12/29 00:59:12;;;;;;;2.60;2.40;;;9.80;51.60;;;;;;20865;6730;117295;-74
2022/12/29 01:01:47;;;;;;;3.00;2.72;;;9.60;52.10;;;;;;20708;6730;281047;-73
2022/12/29 01:04:23;;;;;;;3.00;2.67;;;9.70;51.30;;;;;;20968;6730;115812;-74
2022/12/29 01:07:01;;;;;;;2.90;2.70;;;9.80;51.70;;;;;;20887;6730;116808;-74
2022/12/29 01:12:40;;;;;;;2.30;2.20;;;9.50;52.70;;;;;;20891;6730;122313;-75
2022/12/29 01:15:16;;;;;;;2.80;2.60;;;9.30;53.00;;;;;;20650;6729;304897;-75
2022/12/29 01:17:52;;;;;;;2.60;2.40;;;9.50;52.00;;;;;;20780;6729;117072;-74
2022/12/29 01:20:28;;;;;;;2.80;2.60;;;9.60;52.10;;;;;;20675;6730;334637;-75
2022/12/29 01:23:04;;;;;;;2.90;2.63;;;9.80;51.50;;;;;;20870;6730;116662;-75
2022/12/29 01:25:39;;;;;;;4.70;2.77;;;9.80;51.80;;;;;;20869;6730;117794;-75
2022/12/29 01:28:17;;;;;;;2.58;2.37;;;9.80;51.90;;;;;;20547;6730;305100;-74
2022/12/29 01:30:54;;;;;;;2.33;2.23;;;9.70;51.80;;;;;;20886;6730;116796;-75
2022/12/29 01:33:30;;;;;;;2.20;2.10;;;9.60;52.50;;;;;;20869;6730;123510;-75
2022/12/29 01:36:09;;;;;;;2.70;2.50;;;9.60;52.50;;;;;;20668;6730;342875;-76
2022/12/29 01:38:44;;;;;;;2.20;2.00;;;9.80;51.90;;;;;;20728;6730;117464;-74
2022/12/29 01:41:20;;;;;;;2.00;1.70;;;9.80;52.20;;;;;;20866;6730;117064;-78
2022/12/29 01:43:56;;;;;;;2.17;2.00;;;9.70;52.70;;;;;;20873;6730;118658;-75
2022/12/29 01:46:34;;;;;;;2.70;1.98;;;9.60;53.20;;;;;;20678;6730;276115;-75
2022/12/29 01:49:10;;;;;;;2.03;1.90;;;9.80;52.10;;;;;;20444;6801;341481;-75
2022/12/29 01:51:53;;;;;;;2.00;1.90;;;10.60;48.80;;;;;;20543;6762;280122;-75
2022/12/29 01:54:32;;;;;;;1.87;1.77;;;10.70;49.30;;;;;;20598;6755;309931;-75
2022/12/29 01:57:07;;;;;;;1.80;1.70;;;11.00;48.30;;;;;;20592;6740;308576;-75
2022/12/29 01:59:43;;;;;;;1.50;1.40;;;11.30;47.90;;;;;;20836;6740;116843;-75
2022/12/29 02:02:18;;;;;;;2.53;1.57;;;11.10;48.50;;;;;;20579;6755;336837;-76
2022/12/29 02:04:54;;;;;;;2.07;1.40;;;11.20;48.10;;;;;;20853;6740;117015;-75
2022/12/29 02:07:30;;;;;;;1.70;1.60;;;11.10;48.70;;;;;;20513;6755;308300;-74
2022/12/29 02:10:05;;;;;;;1.37;1.30;;;11.20;48.40;;;;;;20851;6740;117034;-75
2022/12/29 02:12:41;;;;;;;1.70;1.50;;;11.10;48.90;;;;;;20592;6755;307541;-75
2022/12/29 02:15:17;;;;;;;3.30;1.60;;;11.40;47.80;;;;;;20594;6755;300110;-77
2022/12/29 02:18:16;;;;;;;2.30;1.33;;;11.40;47.80;;;;;;20685;6755;117891;-75
2022/12/29 02:21:05;;;;;;;1.63;1.50;;;11.30;48.40;;;;;;20831;6744;118763;-75
2022/12/29 02:23:50;;;;;;;1.30;1.20;;;11.00;49.20;;;;;;20795;6755;117429;-74
2022/12/29 02:26:39;;;;;;;2.00;1.23;;;10.70;49.90;;;;;;20823;6754;118617;-76
2022/12/29 02:29:32;;;;;;;2.50;1.45;;;10.50;50.40;;;;;;20593;6755;306230;-75
2022/12/29 02:32:21;;;;;;;1.57;1.10;;;10.70;49.30;;;;;;20744;6770;122450;-76
2022/12/29 02:35:14;;;;;;;1.40;1.30;;;10.80;49.70;;;;;;20798;6755;124376;-74
2022/12/29 02:38:12;;;;;;;1.73;1.63;;;10.60;50.20;;;;;;20500;6755;283758;-74
2022/12/29 02:40:48;;;;;;;1.83;1.17;;;10.80;49.50;;;;;;20856;6740;120947;-77
2022/12/29 02:43:40;;;;;;;1.50;1.27;;;10.80;49.50;;;;;;20823;6740;121348;-75
2022/12/29 02:46:43;;;;;;;2.67;1.10;;;10.60;50.50;;;;;;20848;6740;116785;-75
2022/12/29 02:49:19;;;;;;;1.60;1.40;;;10.60;50.50;;;;;;20629;6740;306582;-75
2022/12/29 02:51:55;;;;;;;2.50;1.37;;;11.30;47.90;;;;;;20633;6740;292626;-75
2022/12/29 02:54:41;;;;;;;2.60;1.43;;;11.30;47.90;;;;;;20850;6740;117644;-76
2022/12/29 02:57:20;;;;;;;1.40;1.30;;;11.30;48.40;;;;;;20601;6740;310783;-75
2022/12/29 03:00:12;;;;;;;2.20;1.60;;;11.40;47.20;;;;;;20599;6755;276814;-74
2022/12/29 03:02:50;;;;;;;1.53;1.40;;;11.70;46.70;;;;;;20645;6740;306577;-74
2022/12/29 03:05:29;;;;;;;2.30;1.20;;;12.00;46.10;;;;;;20832;6740;117199;-75
2022/12/29 03:08:24;;;;;;;1.70;0.90;;;11.90;47.00;;;;;;20741;6740;117287;-75
2022/12/29 03:12:07;;;;;;;1.20;1.10;;;11.50;47.70;;;;;;20698;6762;119257;-79
2022/12/29 03:16:44;;;;;;;2.27;0.90;;;11.10;49.00;;;;;;20843;6739;118264;-74
2022/12/29 03:19:23;;;;;;;3.60;1.43;;;11.10;47.60;;;;;;20598;6727;306747;-76
2022/12/29 03:25:01;;;;;;;1.40;1.30;;;11.50;46.60;;;;;;20643;6740;288032;-75
2022/12/29 03:27:43;;;;;;;2.50;1.37;;;11.80;47.00;;;;;;20731;6746;118690;-75
2022/12/29 03:30:19;;;;;;;1.27;1.17;;;11.70;46.40;;;;;;20901;6718;116907;-75
2022/12/29 03:32:54;;;;;;;1.40;1.40;;;11.50;47.30;;;;;;20867;6733;123835;-74
2022/12/29 03:35:35;;;;;;;1.40;1.07;;;11.30;48.00;;;;;;20806;6733;118176;-75
2022/12/29 03:38:05;;;;;;;2.73;1.30;;;11.10;48.40;;;;;;20766;6744;117167;-78
2022/12/29 03:40:41;;;;;;;2.00;1.10;;;10.90;48.80;;;;;;20868;6733;117964;-74
2022/12/29 03:43:17;;;;;;;1.98;1.23;;;11.00;47.30;;;;;;20515;6759;360958;-74
2022/12/29 03:45:53;;;;;;;2.00;1.63;;;11.00;47.20;;;;;;20750;6762;117546;-74
2022/12/29 03:48:28;;;;;;;1.73;1.00;;;11.10;47.80;;;;;;20721;6731;117207;-76
2022/12/29 03:51:04;;;;;;;1.10;1.00;;;11.00;48.30;;;;;;20871;6733;117573;-74
2022/12/29 03:53:41;;;;;;;1.57;0.90;;;10.90;48.90;;;;;;20885;6723;116913;-74
2022/12/29 03:56:16;;;;;;;1.77;1.13;;;10.80;49.20;;;;;;20891;6723;118344;-76
2022/12/29 03:58:54;;;;;;;1.20;1.10;;;10.70;49.50;;;;;;20734;6723;117346;-74
2022/12/29 04:01:29;;;;;;;1.50;1.40;;;10.60;49.60;;;;;;20597;6738;306297;-75
2022/12/29 04:04:06;;;;;;;2.50;1.43;;;10.90;47.80;;;;;;20581;6740;312018;-74
2022/12/29 04:06:42;;;;;;;1.90;1.30;;;11.30;46.70;;;;;;20856;6729;120690;-74
2022/12/29 04:09:23;;;;;;;1.47;1.17;;;11.30;47.20;;;;;;20881;6725;121457;-73
2022/12/29 04:11:54;;;;;;;1.30;1.13;;;10.90;48.50;;;;;;20900;6725;116945;-75
2022/12/29 04:14:33;;;;;;;1.60;1.20;;;10.90;48.40;;;;;;20662;6729;307281;-75
2022/12/29 04:17:09;;;;;;;2.10;1.30;;;11.00;47.30;;;;;;20580;6748;279279;-75
2022/12/29 04:19:45;;;;;;;1.83;1.40;;;11.40;46.30;;;;;;20580;6748;306782;-75
2022/12/29 04:22:24;;;;;;;1.60;1.50;;;11.70;45.60;;;;;;20597;6748;306763;-75
2022/12/29 04:24:57;;;;;;;3.40;1.60;;;11.70;46.00;;;;;;20761;6776;117592;-75
2022/12/29 04:27:33;;;;;;;1.43;1.27;;;11.70;45.90;;;;;;20846;6721;118592;-74
2022/12/29 04:30:09;;;;;;;1.33;1.20;;;11.40;46.80;;;;;;20709;6719;307260;-74
2022/12/29 04:32:45;;;;;;;2.53;1.17;;;11.40;46.60;;;;;;20809;6750;118680;-75
2022/12/29 04:35:21;;;;;;;1.63;1.50;;;11.40;46.60;;;;;;20901;6718;117955;-74
2022/12/29 04:37:56;;;;;;;1.93;1.40;;;11.20;47.30;;;;;;20779;6742;117450;-75
2022/12/29 04:40:33;;;;;;;1.00;1.00;;;10.90;48.40;;;;;;20937;6712;122794;-75
2022/12/29 04:43:08;;;;;;;2.05;1.23;;;10.90;48.40;;;;;;20708;6712;275686;-75
2022/12/29 04:45:44;;;;;;;1.50;1.40;;;11.10;46.90;;;;;;20922;6712;120949;-75
2022/12/29 04:48:19;;;;;;;2.10;1.47;;;11.10;47.30;;;;;;20810;6710;120933;-74
2022/12/29 04:50:55;;;;;;;1.58;1.37;;;11.00;47.80;;;;;;20716;6715;307751;-75
2022/12/29 04:53:30;;;;;;;1.27;1.17;;;11.10;46.80;;;;;;20769;6730;118115;-75
2022/12/29 04:56:06;;;;;;;1.73;1.40;;;11.10;47.30;;;;;;20763;6761;122304;-75
2022/12/29 04:58:42;;;;;;;4.20;1.63;;;10.90;47.80;;;;;;20681;6768;118530;-75
2022/12/29 05:01:17;;;;;;;2.53;1.27;;;10.70;48.30;;;;;;20819;6757;117930;-74
2022/12/29 05:03:53;;;;;;;1.60;1.50;;;10.60;48.80;;;;;;20810;6749;118479;-75
2022/12/29 05:06:28;;;;;;;2.37;1.37;;;10.50;49.70;;;;;;20518;6774;307497;-74
2022/12/29 05:09:04;;;;;;;1.48;1.37;;;10.80;47.70;;;;;;20345;6831;313968;-74
2022/12/29 05:11:42;;;;;;;1.27;1.20;;;11.10;46.70;;;;;;20769;6765;117454;-75
2022/12/29 05:14:15;;;;;;;1.57;1.30;;;11.20;47.20;;;;;;20757;6783;119194;-75
2022/12/29 05:16:51;;;;;;;2.83;1.43;;;11.00;47.90;;;;;;20826;6753;117436;-74
2022/12/29 05:19:27;;;;;;;1.40;1.30;;;10.90;48.50;;;;;;20655;6736;313393;-75
2022/12/29 05:22:03;;;;;;;1.60;1.40;;;11.10;47.00;;;;;;20596;6751;307845;-74
2022/12/29 05:24:39;;;;;;;1.30;1.20;;;11.50;46.20;;;;;;20772;6766;117252;-75
2022/12/29 05:27:15;;;;;;;1.50;1.40;;;11.40;46.80;;;;;;20753;6756;116916;-75
2022/12/29 05:29:50;;;;;;;1.80;1.60;;;11.40;47.40;;;;;;20564;6757;307709;-75
2022/12/29 05:32:26;;;;;;;1.70;1.60;;;11.60;46.40;;;;;;20747;6765;117300;-75
2022/12/29 05:35:02;;;;;;;1.30;1.20;;;11.50;46.80;;;;;;20840;6742;119887;-74
2022/12/29 05:37:37;;;;;;;2.40;1.53;;;11.30;47.40;;;;;;20544;6742;284483;-77
2022/12/29 05:40:14;;;;;;;1.37;1.27;;;11.40;47.00;;;;;;20891;6727;118095;-74
2022/12/29 05:42:49;;;;;;;1.62;1.40;;;11.40;47.00;;;;;;20642;6727;276543;-75
2022/12/29 05:45:25;;;;;;;1.90;1.57;;;11.60;46.30;;;;;;20820;6742;117489;-75
2022/12/29 05:48:00;;;;;;;3.07;1.70;;;11.60;46.90;;;;;;20747;6736;118010;-76
2022/12/29 05:50:36;;;;;;;1.80;1.40;;;11.40;47.50;;;;;;20666;6739;309977;-74
2022/12/29 05:53:11;;;;;;;2.40;1.30;;;11.50;46.50;;;;;;20871;6727;117444;-72
2022/12/29 05:55:47;;;;;;;2.25;2.05;;;11.60;47.10;;;;;;20632;6753;335893;-76
2022/12/29 05:58:23;;;;;;;1.50;1.40;;;11.70;45.90;;;;;;20763;6753;118114;-73
2022/12/29 06:00:58;;;;;;;1.58;1.45;;;11.70;46.50;;;;;;20577;6752;281009;-75
2022/12/29 06:03:34;;;;;;;2.23;1.80;;;11.80;45.80;;;;;;20784;6738;118441;-75
2022/12/29 06:06:12;;;;;;;1.50;1.37;;;11.80;46.50;;;;;;20819;6741;116979;-78
2022/12/29 06:08:46;;;;;;;1.80;1.70;;;11.70;46.40;;;;;;20459;6738;286840;-80
2022/12/29 06:11:21;;;;;;;2.83;1.40;;;11.70;46.40;;;;;;20574;6753;311514;-73
2022/12/29 06:14:00;;;;;;;2.90;1.60;;;12.10;46.00;;;;;;20782;6753;118491;-78
2022/12/29 06:16:34;;;;;;;2.30;1.40;;;11.70;47.20;;;;;;20796;6753;119848;-84
2022/12/29 06:19:09;;;;;;;2.13;1.63;;;11.70;47.20;;;;;;20614;6812;117862;-80
2022/12/29 06:21:46;;;;;;;2.28;1.60;;;11.50;47.90;;;;;;20589;6738;306875;-74
2022/12/29 06:24:22;;;;;;;2.60;1.27;;;11.70;46.90;;;;;;20805;6750;117088;-80
2022/12/29 06:26:57;;;;;;;2.00;1.90;;;11.70;47.40;;;;;;20569;6750;338809;-76
2022/12/29 06:29:34;;;;;;;2.17;1.90;;;11.80;47.00;;;;;;20626;6742;276950;-81
2022/12/29 06:32:08;;;;;;;1.90;1.60;;;12.10;46.00;;;;;;20598;6755;306421;-75
2022/12/29 06:34:44;;;;;;;2.20;2.10;;;12.30;45.70;;;;;;20797;6753;117477;-77
2022/12/29 06:37:20;;;;;;;2.30;1.50;;;12.20;46.40;;;;;;20733;6766;117110;-75
2022/12/29 06:39:55;;;;;;;1.50;1.40;;;11.90;47.20;;;;;;20773;6753;117088;-76
2022/12/29 06:42:31;;;;;;;1.62;1.45;;;11.60;47.80;;;;;;20451;6787;336392;-75
2022/12/29 06:45:07;;;;;;;2.35;1.70;;;12.00;47.00;;;;;;20514;6770;280684;-74
2022/12/29 06:47:43;;;;;;;1.60;1.60;;;12.00;46.60;;;;;;20677;6764;117883;-73
2022/12/29 06:50:18;;;;;;;1.60;1.50;;;11.90;47.00;;;;;;20801;6756;118260;-74
2022/12/29 06:52:55;;;;;;;1.70;1.60;;;11.60;48.50;;;;;;20735;6763;117157;-76
2022/12/29 06:55:30;;;;;;;1.87;1.67;;;11.60;48.40;;;;;;20705;6780;118355;-75
2022/12/29 06:58:06;;;;;;;1.67;1.40;;;11.40;49.00;;;;;;20649;6757;123194;-75
2022/12/29 07:00:42;;;;;;;1.40;1.30;;;11.30;49.40;;;;;;20794;6754;118330;-74
2022/12/29 07:03:17;;;;;;;1.75;1.65;;;11.20;49.70;;;;;;20588;6754;291133;-75
2022/12/29 07:05:54;;;;;;;2.47;1.50;;;11.40;48.60;;;;;;20745;6756;117185;-75
2022/12/29 07:08:28;;;;;;;1.77;1.67;;;11.50;48.90;;;;;;20702;6749;117347;-75
2022/12/29 07:11:05;;;;;;;2.15;1.70;;;11.60;48.80;;;;;;20626;6738;309705;-75
2022/12/29 07:13:41;;;;;;;2.40;1.67;;;11.50;48.70;;;;;;20712;6738;119144;-80
2022/12/29 07:16:20;;;;;;;1.60;1.40;;;11.60;49.10;;;;;;20837;6733;116310;-76
2022/12/29 07:18:53;;;;;;;1.80;1.70;;;11.60;48.90;;;;;;20513;6736;279051;-76
2022/12/29 07:21:29;;;;;;;2.53;1.30;;;11.60;48.90;;;;;;20762;6754;118752;-77
2022/12/29 07:24:05;;;;;;;2.17;1.53;;;11.60;49.20;;;;;;20695;6780;119445;-77
2022/12/29 07:26:41;;;;;;;1.60;1.50;;;11.30;50.00;;;;;;20687;6781;119099;-77
2022/12/29 07:29:18;;;;;;;1.40;1.30;;;11.30;50.00;;;;;;20752;6762;118071;-76
2022/12/29 07:31:53;;;;;;;1.63;1.53;;;11.10;50.30;;;;;;20689;6775;123024;-74
2022/12/29 07:34:34;;;;;;;3.50;1.63;;;11.00;50.60;;;;;;20709;6777;118279;-75
2022/12/29 07:37:04;;;;;;;5.10;4.60;;;10.90;50.90;;;;;;20586;6745;281168;-76
2022/12/29 07:39:40;;;;;;;5.33;4.03;;;11.10;50.20;;;;;;20704;6741;119444;-77
2022/12/29 07:42:18;;;;;;;1.43;1.43;;;11.20;50.40;;;;;;20768;6749;117445;-75
2022/12/29 07:44:51;;;;;;;1.70;1.60;;;11.10;50.70;;;;;;20733;6766;118506;-76
2022/12/29 07:47:27;;;;;;;1.87;1.70;;;11.00;51.10;;;;;;20635;6757;121414;-75
2022/12/29 07:50:02;;;;;;;2.00;1.80;;;10.90;51.50;;;;;;20625;6747;276765;-75
2022/12/29 07:52:39;;;;;;;2.90;1.92;;;11.60;49.70;;;;;;20616;6742;306098;-76
2022/12/29 07:55:14;;;;;;;1.50;1.40;;;11.60;49.70;;;;;;20861;6732;117151;-78
2022/12/29 07:57:50;;;;;;;1.83;1.73;;;11.70;50.00;;;;;;20569;6730;309061;-78
2022/12/29 08:00:26;;;;;;;1.60;1.50;;;12.20;49.30;;;;;;20661;6730;277513;-75
2022/12/29 08:03:02;;;;;;;1.50;1.40;;;12.20;48.60;;;;;;20817;6738;117471;-74
2022/12/29 08:05:37;;;;;;;1.20;1.20;;;12.20;49.10;;;;;;20837;6731;118067;-75
2022/12/29 08:08:13;;;;;;;1.37;1.30;;;12.00;49.70;;;;;;20746;6731;118451;-75
2022/12/29 08:10:49;;;;;;;1.60;1.50;;;11.90;50.20;;;;;;20615;6746;311160;-76
2022/12/29 08:13:24;;;;;;;1.50;1.40;;;12.10;49.40;;;;;;20848;6731;118512;-76
2022/12/29 08:16:00;;;;;;;1.75;1.65;;;12.10;49.70;;;;;;20663;6731;276791;-76
2022/12/29 08:18:35;;;;;;;1.90;1.47;;;12.40;48.70;;;;;;20726;6731;116728;-75
2022/12/29 08:21:12;;;;;;;1.40;1.30;;;12.30;49.60;;;;;;20763;6739;118205;-76
2022/12/29 08:23:49;;;;;;;2.40;1.17;;;12.20;49.50;;;;;;20831;6730;116917;-76
2022/12/29 08:26:24;;;;;;;1.27;1.17;;;12.10;50.00;;;;;;20880;6730;120822;-75
2022/12/29 08:29:01;;;;;;;1.65;1.50;;;12.30;49.00;;;;;;20478;6730;307468;-76
2022/12/29 08:31:36;;;;;;;1.53;1.30;;;12.20;48.90;;;;;;20562;6753;307573;-76
2022/12/29 08:34:13;;;;;;;1.27;1.17;;;12.70;47.80;;;;;;20718;6780;117251;-76
2022/12/29 08:36:49;;;;;;;2.03;1.60;;;12.70;48.30;;;;;;20508;6774;281412;-76
2022/12/29 08:39:24;;;;;;;2.30;1.45;;;12.90;47.20;;;;;;20543;6766;336081;-75
2022/12/29 08:42:00;;;;;;;1.43;1.33;;;13.20;46.70;;;;;;20467;6774;309522;-76
2022/12/29 08:44:37;;;;;;;1.97;1.20;;;13.50;46.20;;;;;;20817;6754;120702;-75
2022/12/29 08:47:13;;;;;;;1.53;1.33;;;13.10;47.50;;;;;;20818;6747;117061;-75
2022/12/29 08:49:48;;;;;;;1.50;1.40;;;13.10;47.50;;;;;;20798;6766;117630;-76
2022/12/29 08:52:25;;;;;;;1.10;1.10;;;12.70;48.60;;;;;;20810;6751;116901;-75
2022/12/29 08:55:00;;;;;;;1.67;1.20;;;12.70;48.60;;;;;;20760;6766;117991;-76
2022/12/29 08:57:36;;;;;;;1.20;1.10;;;12.60;49.00;;;;;;20680;6766;117404;-75
2022/12/29 09:00:12;;;;;;;1.87;1.77;;;12.50;49.20;;;;;;20752;6771;118288;-75
2022/12/29 09:02:50;;;;;;;1.60;1.50;;;12.40;49.40;;;;;;20776;6753;116866;-75
2022/12/29 09:05:23;;;;;;;1.50;1.40;;;12.40;49.50;;;;;;20473;6768;276205;-75
2022/12/29 09:07:59;;;;;;;2.57;1.40;;;12.70;48.30;;;;;;20588;6768;122023;-74
2022/12/29 09:10:44;;;;;;;2.43;1.40;;;12.70;48.20;;;;;;20480;6784;306738;-71
2022/12/29 09:13:10;;;;;;;2.50;1.60;;;12.90;47.00;;;;;;20523;6778;321907;-74
2022/12/29 09:15:47;;;;;;;1.70;1.60;;;13.60;45.80;;;;;;20573;6757;335415;-76
2022/12/29 09:18:23;;;;;;;1.47;1.37;;;13.60;45.60;;;;;;20774;6721;118478;-76
2022/12/29 09:20:58;;;;;;;1.30;1.30;;;13.50;46.30;;;;;;20934;6714;123227;-80
2022/12/29 09:23:35;;;;;;;1.70;1.40;;;13.30;47.10;;;;;;20696;6714;338509;-72
2022/12/29 09:26:11;;;;;;;1.55;1.45;;;13.30;46.60;;;;;;20669;6729;294192;-73
2022/12/29 09:28:47;;;;;;;1.83;1.13;;;13.60;46.40;;;;;;20767;6714;117112;-73
2022/12/29 09:31:22;;;;;;;3.73;1.20;;;13.60;47.00;;;;;;20911;6714;118301;-73
2022/12/29 09:33:59;;;;;;;1.67;1.58;;;13.30;47.50;;;;;;20688;6721;335257;-72
2022/12/29 09:36:40;;;;;;;2.00;1.60;;;13.40;47.10;;;;;;20813;6754;118092;-73
2022/12/29 09:39:10;;;;;;;1.63;1.53;;;13.30;47.60;;;;;;20768;6754;117072;-73
2022/12/29 09:42:06;;;;;;;1.80;1.70;;;13.20;47.70;;;;;;20566;6751;311498;-72
2022/12/29 09:44:45;;;;;;;1.37;1.27;;;13.20;47.70;;;;;;20835;6744;117261;-72
2022/12/29 09:47:22;;;;;;;3.00;1.60;;;13.30;48.20;;;;;;20561;6744;339487;-76
2022/12/29 09:50:27;;;;;;;8.50;1.60;;;13.30;47.90;;;;;;20882;6724;117055;-71
2022/12/29 09:53:17;;;;;;;1.83;1.60;;;13.50;48.00;;;;;;20649;6724;305133;-76
2022/12/29 09:55:56;;;;;;;2.22;1.60;;;13.40;47.90;;;;;;20650;6729;316501;-74
2022/12/29 09:58:37;;;;;;;2.87;1.40;;;13.80;47.60;;;;;;20647;6751;117447;-74
2022/12/29 10:01:30;;;;;;;1.52;1.42;;;13.70;48.00;;;;;;20532;6781;314981;-74
2022/12/29 10:04:05;;;;;;;2.67;1.37;;;13.80;47.60;;;;;;20828;6743;117957;-74
2022/12/29 10:06:51;;;;;;;1.20;1.10;;;13.60;48.10;;;;;;20817;6755;117979;-75
2022/12/29 10:09:30;;;;;;;1.47;1.37;;;13.40;48.80;;;;;;20851;6733;118233;-74
2022/12/29 10:12:32;;;;;;;3.10;1.70;;;13.20;49.40;;;;;;20822;6739;117329;-75
2022/12/29 10:15:47;;;;;;;1.58;1.40;;;13.00;49.80;;;;;;20603;6739;305181;-74
2022/12/29 10:18:42;;;;;;;2.80;1.70;;;13.20;48.70;;;;;;20528;6740;306106;-76
2022/12/29 10:21:31;;;;;;;1.77;1.50;;;13.60;48.10;;;;;;20588;6757;334896;-74
2022/12/29 10:24:07;;;;;;;1.50;1.40;;;13.90;47.20;;;;;;20882;6742;116061;-74
2022/12/29 10:26:42;;;;;;;1.43;1.37;;;13.80;47.80;;;;;;20863;6742;116923;-74
2022/12/29 10:29:18;;;;;;;1.10;1.10;;;13.50;48.50;;;;;;20845;6742;117491;-74
2022/12/29 10:32:03;;;;;;;1.45;1.35;;;13.30;49.10;;;;;;20610;6742;282136;-74
2022/12/29 10:34:42;;;;;;;2.15;1.42;;;13.40;48.50;;;;;;20679;6727;305726;-74
2022/12/29 10:37:24;;;;;;;1.47;1.37;;;13.70;47.80;;;;;;20567;6742;279123;-75
2022/12/29 10:39:58;;;;;;;1.43;1.33;;;14.00;47.10;;;;;;20815;6798;118158;-75
2022/12/29 10:42:40;;;;;;;1.62;1.40;;;13.80;47.60;;;;;;20608;6742;307123;-75
2022/12/29 10:45:15;;;;;;;1.10;1.10;;;13.90;47.50;;;;;;20831;6742;116896;-74
2022/12/29 10:47:51;;;;;;;1.60;1.30;;;13.70;48.00;;;;;;20765;6741;117642;-74
2022/12/29 10:50:29;;;;;;;1.97;1.20;;;13.50;48.70;;;;;;20838;6745;121263;-75
2022/12/29 10:53:02;;;;;;;1.43;1.20;;;13.20;49.20;;;;;;20825;6750;121280;-75
2022/12/29 10:55:38;;;;;;;1.75;1.50;;;13.30;49.30;;;;;;20659;6735;339938;-75
2022/12/29 10:58:14;;;;;;;1.37;1.27;;;13.30;49.20;;;;;;20672;6754;118623;-75
2022/12/29 11:00:49;;;;;;;1.10;1.10;;;13.40;49.50;;;;;;20864;6739;116847;-74
2022/12/29 11:03:39;;;;;;;1.60;1.50;;;13.40;49.20;;;;;;20685;6728;308261;-76
2022/12/29 11:06:25;;;;;;;1.77;1.13;;;13.40;49.20;;;;;;20360;6770;116828;-75
2022/12/29 11:09:09;;;;;;;1.57;1.23;;;13.40;49.50;;;;;;20674;6749;117422;-73
2022/12/29 11:11:47;;;;;;;2.22;1.50;;;13.40;49.50;;;;;;20639;6732;312779;-73
2022/12/29 11:14:30;;;;;;;3.10;1.40;;;13.90;49.30;;;;;;20668;6727;291647;-74
2022/12/29 11:17:06;;;;;;;1.10;1.10;;;13.80;49.20;;;;;;20848;6731;119685;-74
2022/12/29 11:19:41;;;;;;;1.00;1.00;;;13.80;49.30;;;;;;20839;6740;122483;-73
2022/12/29 11:22:29;;;;;;;3.00;1.50;;;13.70;50.00;;;;;;20665;6730;306450;-73
2022/12/29 11:25:05;;;;;;;2.07;1.37;;;13.80;49.50;;;;;;20664;6751;276427;-76
2022/12/29 11:27:43;;;;;;;1.65;1.55;;;14.20;49.10;;;;;;20575;6730;329402;-75
2022/12/29 11:30:18;;;;;;;1.30;1.20;;;14.60;48.60;;;;;;20835;6745;116962;-73
2022/12/29 11:32:53;;;;;;;1.40;1.30;;;14.50;48.90;;;;;;20627;6744;336338;-76
2022/12/29 11:35:36;;;;;;;1.40;1.30;;;14.40;49.30;;;;;;20822;6744;118603;-76
2022/12/29 11:38:21;;;;;;;1.30;1.30;;;14.30;49.80;;;;;;20761;6736;117811;-76
2022/12/29 11:40:56;;;;;;;1.50;1.40;;;14.00;50.50;;;;;;20687;6729;276948;-76
2022/12/29 11:43:39;;;;;;;2.23;1.30;;;14.00;51.70;;;;;;20841;6736;119192;-76
2022/12/29 11:46:14;;;;;;;1.83;1.73;;;13.90;51.90;;;;;;20667;6736;306130;-78
2022/12/29 11:48:50;;;;;;;1.40;1.40;;;13.90;53.30;;;;;;20707;6736;117469;-78
2022/12/29 11:51:26;;;;;;;1.67;1.58;;;13.80;53.30;;;;;;20592;6745;277462;-76
2022/12/29 11:54:02;;;;;;;1.50;1.40;;;13.80;53.90;;;;;;20872;6736;121471;-75
2022/12/29 11:56:38;;;;;;;1.60;1.50;;;13.90;54.80;;;;;;20673;6731;280248;-72
2022/12/29 11:59:30;;;;;;;1.62;1.50;;;13.90;54.10;;;;;;20661;6738;336122;-77
2022/12/29 12:02:23;;;;;;;1.73;1.58;;;14.20;53.80;;;;;;20679;6730;335419;-73
2022/12/29 12:05:01;;;;;;;1.63;1.37;;;14.40;52.70;;;;;;20808;6759;117014;-78
2022/12/29 12:07:40;;;;;;;2.53;1.60;;;14.20;52.80;;;;;;20563;6743;279652;-77
2022/12/29 12:10:29;;;;;;;1.80;1.70;;;14.20;52.80;;;;;;20679;6727;306538;-75
2022/12/29 12:13:18;;;;;;;3.20;3.10;;;14.20;52.50;;;;;;20928;6712;117101;-76
2022/12/29 12:16:03;;;;;;;1.90;1.80;;;14.20;52.50;;;;;;20882;6732;117154;-74
2022/12/29 12:18:46;;;;;;;2.53;2.33;;;13.90;53.00;;;;;;20515;6731;313429;-73
2022/12/29 12:21:33;;;;;;;2.15;2.05;;;13.90;52.60;;;;;;20693;6722;277496;-76
2022/12/29 12:24:35;;;;;;;2.50;1.60;;;14.20;52.00;;;;;;20928;6722;117101;-76
2022/12/29 12:27:24;;;;;;;1.67;1.57;;;14.00;52.10;;;;;;20840;6732;118131;-76
2022/12/29 12:30:05;;;;;;;1.40;1.30;;;13.70;52.70;;;;;;20911;6717;119568;-74
2022/12/29 12:32:43;;;;;;;1.60;1.50;;;13.50;53.30;;;;;;20656;6732;292734;-76
2022/12/29 12:35:55;;;;;;;1.97;1.70;;;13.60;53.80;;;;;;20651;6732;305686;-75
2022/12/29 12:38:44;;;;;;;2.13;1.60;;;13.90;53.30;;;;;;20740;6732;117271;-76
2022/12/29 12:41:32;;;;;;;1.67;1.58;;;13.70;53.30;;;;;;20667;6732;304522;-76
2022/12/29 12:44:32;;;;;;;4.90;3.27;;;13.70;53.30;;;;;;20902;6732;117961;-76
2022/12/29 12:47:18;;;;;;;2.57;1.67;;;13.60;53.40;;;;;;20826;6788;117299;-76
2022/12/29 12:50:20;;;;;;;1.80;1.60;;;13.20;53.90;;;;;;20664;6731;276357;-76
2022/12/29 12:53:07;;;;;;;1.33;1.23;;;13.40;54.90;;;;;;20886;6732;117228;-76
2022/12/29 12:56:06;;;;;;;1.80;1.70;;;13.20;54.70;;;;;;20648;6732;304795;-75
2022/12/29 12:59:07;;;;;;;5.40;5.00;;;13.40;55.60;;;;;;20722;6727;117909;-76
2022/12/29 13:01:45;;;;;;;2.43;2.33;;;13.30;55.30;;;;;;20846;6730;118387;-76
2022/12/29 13:04:41;;;;;;;2.30;2.20;;;13.00;55.60;;;;;;20676;6733;306131;-76
2022/12/29 13:07:16;;;;;;;2.57;2.37;;;13.10;56.30;;;;;;20636;6730;308966;-75
2022/12/29 13:10:19;;;;;;;2.50;2.40;;;13.50;56.20;;;;;;20896;6727;117104;-75
2022/12/29 13:13:34;;;;;;;2.43;2.13;;;13.40;56.00;;;;;;20800;6761;121468;-76
2022/12/29 13:16:13;;;;;;;2.07;1.97;;;13.10;56.30;;;;;;20889;6731;116901;-76
2022/12/29 13:18:58;;;;;;;2.23;2.03;;;12.80;56.60;;;;;;20678;6731;117799;-76
2022/12/29 13:21:37;;;;;;;2.03;1.93;;;12.60;57.60;;;;;;20854;6752;118214;-76
2022/12/29 13:24:26;;;;;;;2.20;2.10;;;12.50;57.60;;;;;;20870;6740;116987;-76
2022/12/29 13:27:25;;;;;;;2.17;2.00;;;12.70;57.20;;;;;;20661;6728;307426;-76
2022/12/29 13:30:01;;;;;;;2.20;2.10;;;12.70;57.40;;;;;;20704;6725;305998;-76
2022/12/29 13:32:38;;;;;;;1.80;1.70;;;13.20;56.30;;;;;;20901;6725;120778;-72
2022/12/29 13:35:23;;;;;;;1.90;1.73;;;13.20;56.10;;;;;;20909;6725;118106;-74
2022/12/29 13:37:59;;;;;;;2.40;2.30;;;13.00;56.50;;;;;;20800;6725;118043;-74
2022/12/29 13:40:34;;;;;;;2.70;2.50;;;12.90;57.00;;;;;;20865;6796;116884;-74
2022/12/29 13:43:10;;;;;;;2.63;2.40;;;12.80;57.40;;;;;;20852;6740;118150;-72
2022/12/29 13:45:45;;;;;;;2.63;2.10;;;12.70;57.70;;;;;;20878;6781;117272;-75
2022/12/29 13:48:22;;;;;;;1.77;1.67;;;12.60;57.90;;;;;;20808;6725;118743;-81
2022/12/29 13:50:59;;;;;;;2.17;1.97;;;12.70;58.20;;;;;;20633;6732;288485;-76
2022/12/29 13:54:01;;;;;;;2.20;2.00;;;12.90;57.20;;;;;;20850;6753;117494;-75
2022/12/29 13:56:39;;;;;;;1.93;1.83;;;13.10;57.00;;;;;;20874;6735;117388;-73
2022/12/29 13:59:41;;;;;;;1.90;1.80;;;12.80;57.80;;;;;;20871;6735;117446;-74
2022/12/29 14:02:31;;;;;;;1.90;1.70;;;12.80;57.10;;;;;;20651;6735;306081;-73
2022/12/29 14:05:20;;;;;;;1.80;1.70;;;13.10;56.30;;;;;;20778;6735;121378;-74
2022/12/29 14:07:59;;;;;;;1.20;1.20;;;13.20;56.40;;;;;;20796;6737;117413;-76
2022/12/29 14:10:37;;;;;;;3.12;2.80;;;13.10;56.70;;;;;;20594;6737;339589;-74
2022/12/29 14:13:13;;;;;;;1.40;1.30;;;13.30;55.80;;;;;;20853;6737;118018;-74
2022/12/29 14:16:04;;;;;;;3.23;2.93;;;13.40;55.80;;;;;;20826;6736;117641;-75
2022/12/29 14:18:31;;;;;;;3.33;3.00;;;13.30;56.10;;;;;;20602;6712;312862;-73